createdAt,value
2023-03-27T00:05:20.549Z,4.90
2023-03-27T00:10:48.715Z,4.90
2023-03-27T00:16:16.618Z,4.80
2023-03-27T00:21:45.108Z,4.80
2023-03-27T00:27:12.846Z,4.80
2023-03-27T00:32:40.873Z,4.80
2023-03-27T00:38:09.641Z,4.70
2023-03-27T00:43:45.439Z,4.70
2023-03-27T00:49:16.493Z,4.70
2023-03-27T00:54:46.814Z,4.70
2023-03-27T01:00:17.120Z,4.80
2023-03-27T01:05:45.914Z,4.80
2023-03-27T01:11:39.617Z,4.80
2023-03-27T01:17:35.254Z,4.80
2023-03-27T01:23:58.399Z,4.80
2023-03-27T01:30:09.370Z,4.80
2023-03-27T01:35:53.067Z,4.80
2023-03-27T01:41:54.375Z,4.70
2023-03-27T01:47:54.952Z,4.70
2023-03-27T01:53:42.331Z,4.60
2023-03-27T01:59:17.263Z,4.50
2023-03-27T02:04:52.472Z,4.40
2023-03-27T02:10:29.499Z,4.40
2023-03-27T02:16:01.171Z,4.30
2023-03-27T02:21:31.516Z,4.30
2023-03-27T02:27:26.093Z,4.30
2023-03-27T02:33:42.887Z,4.30
2023-03-27T02:39:16.109Z,4.30
2023-03-27T02:44:51.637Z,4.30
2023-03-27T02:50:38.503Z,4.30
2023-03-27T02:56:15.172Z,4.30
2023-03-27T03:01:45.620Z,4.20
2023-03-27T03:07:30.994Z,4.20
2023-03-27T03:12:59.246Z,4.10
2023-03-27T03:18:28.047Z,4.10
2023-03-27T03:24:01.842Z,4.00
2023-03-27T03:29:35.462Z,4.00
2023-03-27T03:35:19.619Z,3.90
2023-03-27T03:40:48.748Z,3.80
2023-03-27T03:46:18.841Z,3.80
2023-03-27T03:51:48.460Z,3.70
2023-03-27T03:57:33.124Z,3.60
2023-03-27T04:03:10.391Z,3.60
2023-03-27T04:08:39.438Z,3.50
2023-03-27T04:14:07.260Z,3.40
2023-03-27T04:19:41.843Z,3.40
2023-03-27T04:25:10.002Z,3.30
2023-03-27T04:30:38.742Z,3.30
2023-03-27T04:36:42.595Z,3.30
2023-03-27T04:42:16.571Z,3.40
2023-03-27T04:47:45.128Z,3.50
2023-03-27T04:53:13.104Z,3.60
2023-03-27T04:58:46.984Z,3.70
2023-03-27T05:04:17.327Z,3.70
2023-03-27T05:10:04.707Z,3.70
2023-03-27T05:15:33.702Z,3.60
2023-03-27T05:21:05.090Z,3.60
2023-03-27T05:26:33.985Z,3.50
2023-03-27T05:32:02.953Z,3.50
2023-03-27T05:37:48.021Z,3.40
2023-03-27T05:43:23.076Z,3.30
2023-03-27T05:48:51.361Z,3.30
2023-03-27T05:54:19.339Z,3.30
2023-03-27T05:59:55.441Z,3.20
2023-03-27T06:05:29.332Z,3.10
2023-03-27T06:10:57.748Z,3.00
2023-03-27T06:16:34.193Z,3.00
2023-03-27T06:22:20.572Z,3.00
2023-03-27T06:27:51.633Z,2.90
2023-03-27T06:33:20.030Z,2.80
2023-03-27T06:38:48.607Z,2.70
2023-03-27T06:44:17.730Z,2.60
2023-03-27T06:50:09.128Z,2.50
2023-03-27T06:55:37.265Z,2.40
2023-03-27T07:01:05.515Z,2.30
2023-03-27T07:06:50.651Z,2.20
2023-03-27T07:12:19.061Z,2.20
2023-03-27T07:18:01.069Z,2.10
2023-03-27T07:23:29.122Z,2.10
2023-03-27T07:29:10.867Z,2.00
2023-03-27T07:34:40.098Z,2.10
2023-03-27T07:40:13.882Z,2.10
2023-03-27T07:45:46.178Z,2.00
2023-03-27T07:51:14.578Z,2.00
2023-03-27T07:56:43.543Z,2.00
2023-03-27T08:02:30.719Z,1.90
2023-03-27T08:07:58.747Z,1.80
2023-03-27T08:13:46.240Z,1.70
2023-03-27T08:19:14.260Z,1.70
2023-03-27T08:24:48.030Z,1.70
2023-03-27T08:30:26.129Z,2.00
2023-03-27T08:35:57.379Z,2.40
2023-03-27T08:41:38.798Z,2.50
2023-03-27T08:47:37.311Z,2.60
2023-03-27T08:53:42.078Z,2.50
2023-03-27T08:59:31.614Z,2.50
2023-03-27T09:05:08.714Z,2.30
2023-03-27T09:10:51.205Z,2.20
2023-03-27T09:16:37.603Z,2.10
2023-03-27T09:22:31.533Z,2.10
2023-03-27T09:28:31.206Z,2.10
2023-03-27T09:34:07.376Z,2.10
2023-03-27T09:39:39.240Z,2.00
2023-03-27T09:45:21.842Z,2.10
2023-03-27T09:50:59.010Z,2.10
2023-03-27T09:56:44.639Z,2.30
2023-03-27T10:02:27.292Z,2.40
2023-03-27T10:07:56.347Z,2.50
2023-03-27T10:13:52.317Z,2.60
2023-03-27T10:19:35.579Z,2.80
2023-03-27T10:25:20.700Z,3.00
2023-03-27T10:31:05.140Z,3.30
2023-03-27T10:36:56.385Z,3.40
2023-03-27T10:42:28.504Z,3.50
2023-03-27T10:48:01.645Z,3.60
2023-03-27T10:53:43.993Z,3.60
2023-03-27T10:59:40.503Z,3.80
2023-03-27T11:05:28.250Z,4.00
2023-03-27T11:11:17.365Z,4.20
2023-03-27T11:16:53.502Z,4.20
2023-03-27T11:22:44.869Z,4.10
2023-03-27T11:28:42.942Z,4.00
2023-03-27T11:34:57.616Z,4.10
2023-03-27T11:40:42.947Z,4.50
2023-03-27T11:46:30.326Z,4.60
2023-03-27T11:52:07.000Z,4.60
2023-03-27T11:57:57.533Z,4.90
2023-03-27T12:03:58.616Z,5.60
2023-03-27T12:10:13.697Z,5.60
2023-03-27T12:16:22.748Z,5.00
2023-03-27T12:22:38.023Z,4.80
2023-03-27T12:28:35.084Z,5.20
2023-03-27T12:34:51.039Z,5.50
2023-03-27T12:40:48.562Z,5.30
2023-03-27T12:46:24.892Z,5.10
2023-03-27T12:51:54.200Z,5.20
2023-03-27T12:57:57.827Z,5.00
2023-03-27T13:04:19.773Z,5.00
2023-03-27T13:09:58.251Z,4.80
2023-03-27T13:15:44.753Z,4.50
2023-03-27T13:21:58.962Z,4.40
2023-03-27T13:27:57.946Z,4.40
2023-03-27T13:33:32.304Z,4.20
2023-03-27T13:39:08.251Z,4.00
2023-03-27T13:44:48.290Z,4.40
2023-03-27T13:50:24.924Z,4.60
2023-03-27T13:56:21.601Z,4.60
2023-03-27T14:02:46.886Z,5.00
2023-03-27T14:08:36.965Z,6.10
2023-03-27T14:14:35.640Z,6.50
2023-03-27T14:20:31.407Z,5.90
2023-03-27T14:26:24.642Z,5.30
2023-03-27T14:32:02.003Z,5.10
2023-03-27T14:37:37.034Z,4.70
2023-03-27T14:43:12.997Z,4.20
2023-03-27T14:48:46.071Z,3.80
2023-03-27T14:54:31.366Z,3.60
2023-03-27T15:00:07.028Z,3.40
2023-03-27T15:06:14.734Z,6.20
2023-03-27T15:11:56.842Z,8.30
2023-03-27T15:17:38.713Z,6.60
2023-03-27T15:23:19.147Z,5.50
2023-03-27T15:29:09.395Z,4.70
2023-03-27T15:34:49.717Z,4.60
2023-03-27T15:40:26.716Z,5.70
2023-03-27T15:46:23.544Z,6.70
2023-03-27T15:51:53.891Z,7.10
2023-03-27T15:57:21.992Z,7.00
2023-03-27T16:02:52.549Z,7.60
2023-03-27T16:08:29.167Z,8.00
2023-03-27T16:13:59.201Z,6.40
2023-03-27T16:19:27.356Z,5.40
2023-03-27T16:24:56.178Z,4.70
2023-03-27T16:30:33.026Z,4.10
2023-03-27T16:36:01.728Z,3.70
2023-03-27T16:41:30.250Z,3.40
2023-03-27T16:46:58.162Z,3.30
2023-03-27T16:52:27.364Z,3.20
2023-03-27T16:57:56.380Z,3.00
2023-03-27T17:03:24.577Z,2.30
2023-03-27T17:08:55.851Z,2.00
2023-03-27T17:14:26.548Z,1.70
2023-03-27T17:19:54.949Z,1.40
2023-03-27T17:25:29.529Z,1.30
2023-03-27T17:31:04.488Z,1.20
2023-03-27T17:36:42.728Z,1.10
2023-03-27T17:42:15.742Z,1.10
2023-03-27T17:47:44.004Z,1.10
2023-03-27T17:53:12.369Z,1.20
2023-03-27T17:58:44.136Z,1.30
2023-03-27T18:04:12.271Z,1.20
2023-03-27T18:09:40.735Z,1.00
2023-03-27T18:15:10.117Z,0.90
2023-03-27T18:20:38.818Z,0.90
2023-03-27T18:26:07.753Z,0.80
2023-03-27T18:31:36.177Z,0.80
2023-03-27T18:37:04.420Z,0.80
2023-03-27T18:42:32.558Z,0.80
2023-03-27T18:48:01.307Z,0.80
2023-03-27T18:53:30.213Z,0.70
2023-03-27T18:58:58.319Z,0.60
2023-03-27T19:04:26.555Z,0.60
2023-03-27T19:09:54.733Z,0.50
2023-03-27T19:15:23.201Z,0.50
2023-03-27T19:21:13.901Z,0.50
2023-03-27T19:27:03.838Z,0.60
2023-03-27T19:32:32.141Z,0.60
2023-03-27T19:38:03.170Z,0.60
2023-03-27T19:43:33.233Z,0.70
2023-03-27T19:49:01.322Z,0.70
2023-03-27T19:55:01.606Z,0.60
2023-03-27T20:00:32.284Z,0.60
2023-03-27T20:06:07.464Z,0.60
2023-03-27T20:11:36.886Z,0.50
2023-03-27T20:17:07.973Z,0.40
2023-03-27T20:22:54.281Z,0.40
2023-03-27T20:28:22.736Z,0.40
2023-03-27T20:33:53.219Z,0.30
2023-03-27T20:39:21.946Z,0.30
2023-03-27T20:44:55.241Z,0.20
2023-03-27T20:50:23.920Z,0.20
2023-03-27T20:56:00.000Z,0.10
2023-03-27T21:01:28.647Z,0.10
2023-03-27T21:06:58.458Z,0.10
2023-03-27T21:12:26.751Z,0.00
2023-03-27T21:17:55.049Z,-0.10
2023-03-27T21:23:26.191Z,-0.10
2023-03-27T21:28:54.370Z,-0.20
2023-03-27T21:34:22.790Z,-0.20
2023-03-27T21:39:51.313Z,-0.30
2023-03-27T21:45:19.468Z,-0.30
2023-03-27T21:50:47.687Z,-0.20
2023-03-27T21:56:15.791Z,-0.20
2023-03-27T22:01:43.924Z,-0.10
2023-03-27T22:07:12.108Z,0.00
2023-03-27T22:12:40.375Z,0.00
2023-03-27T22:18:08.792Z,0.00
2023-03-27T22:23:36.968Z,0.00
2023-03-27T22:29:07.838Z,0.00
2023-03-27T22:34:36.058Z,0.00
2023-03-27T22:40:04.950Z,0.00
2023-03-27T22:45:34.643Z,0.00
2023-03-27T22:51:02.867Z,0.00
2023-03-27T22:56:31.966Z,0.10
2023-03-27T23:02:00.164Z,0.10
2023-03-27T23:07:28.270Z,0.10
2023-03-27T23:12:56.570Z,0.20
2023-03-27T23:18:25.366Z,0.30
2023-03-27T23:23:54.409Z,0.40
2023-03-27T23:29:22.628Z,0.40
2023-03-27T23:34:50.800Z,0.40
2023-03-27T23:40:18.838Z,0.40
2023-03-27T23:45:47.994Z,0.40
2023-03-27T23:51:18.079Z,0.50
2023-03-27T23:56:46.825Z,0.50
